sensor_id;sensor_type;location;lat;lon;timestamp;pressure;altitude;pressure_sealevel;temperature
76901;BMP280;65859;43.020;25.096;2023-12-04T00:00:49;99996.50;;;3.70
76901;BMP280;65859;43.020;25.096;2023-12-04T00:03:34;99992.84;;;3.71
76901;BMP280;65859;43.020;25.096;2023-12-04T00:06:19;100001.94;;;3.58
76901;BMP280;65859;43.020;25.096;2023-12-04T00:09:04;100005.84;;;3.56
76901;BMP280;65859;43.020;25.096;2023-12-04T00:11:49;100021.25;;;3.79
76901;BMP280;65859;43.020;25.096;2023-12-04T00:14:33;100031.97;;;3.73
76901;BMP280;65859;43.020;25.096;2023-12-04T00:17:18;100045.03;;;3.67
76901;BMP280;65859;43.020;25.096;2023-12-04T00:20:03;100042.22;;;3.74
76901;BMP280;65859;43.020;25.096;2023-12-04T00:22:48;100038.59;;;3.85
76901;BMP280;65859;43.020;25.096;2023-12-04T00:25:32;100036.44;;;3.72
76901;BMP280;65859;43.020;25.096;2023-12-04T00:28:19;100040.78;;;3.61
76901;BMP280;65859;43.020;25.096;2023-12-04T00:31:03;100042.97;;;3.69
76901;BMP280;65859;43.020;25.096;2023-12-04T00:33:49;100043.25;;;3.73
76901;BMP280;65859;43.020;25.096;2023-12-04T00:36:34;100043.75;;;3.70
76901;BMP280;65859;43.020;25.096;2023-12-04T00:39:18;100047.88;;;3.61
76901;BMP280;65859;43.020;25.096;2023-12-04T00:42:03;100043.66;;;3.60
76901;BMP280;65859;43.020;25.096;2023-12-04T00:44:48;100060.19;;;3.60
76901;BMP280;65859;43.020;25.096;2023-12-04T00:47:33;100066.31;;;3.71
76901;BMP280;65859;43.020;25.096;2023-12-04T00:50:18;100061.50;;;3.58
76901;BMP280;65859;43.020;25.096;2023-12-04T00:53:02;100067.34;;;3.65
76901;BMP280;65859;43.020;25.096;2023-12-04T00:55:48;100079.34;;;3.34
76901;BMP280;65859;43.020;25.096;2023-12-04T00:58:34;100078.44;;;3.45
76901;BMP280;65859;43.020;25.096;2023-12-04T01:01:19;100076.66;;;3.56
76901;BMP280;65859;43.020;25.096;2023-12-04T01:04:04;100087.91;;;3.46
76901;BMP280;65859;43.020;25.096;2023-12-04T01:06:49;100085.09;;;3.58
76901;BMP280;65859;43.020;25.096;2023-12-04T01:09:37;100082.84;;;3.39
76901;BMP280;65859;43.020;25.096;2023-12-04T01:12:22;100091.31;;;3.52
76901;BMP280;65859;43.020;25.096;2023-12-04T01:15:08;100087.13;;;3.51
76901;BMP280;65859;43.020;25.096;2023-12-04T01:17:53;100092.38;;;3.51
76901;BMP280;65859;43.020;25.096;2023-12-04T01:20:38;100087.94;;;3.56
76901;BMP280;65859;43.020;25.096;2023-12-04T01:23:23;100088.75;;;3.25
76901;BMP280;65859;43.020;25.096;2023-12-04T01:26:10;100080.88;;;3.25
76901;BMP280;65859;43.020;25.096;2023-12-04T01:28:57;100076.44;;;3.03
76901;BMP280;65859;43.020;25.096;2023-12-04T01:31:42;100082.94;;;2.79
76901;BMP280;65859;43.020;25.096;2023-12-04T01:34:27;100093.31;;;2.90
76901;BMP280;65859;43.020;25.096;2023-12-04T01:37:12;100089.53;;;3.03
76901;BMP280;65859;43.020;25.096;2023-12-04T01:39:57;100094.81;;;3.08
76901;BMP280;65859;43.020;25.096;2023-12-04T01:42:43;100099.06;;;2.87
76901;BMP280;65859;43.020;25.096;2023-12-04T01:45:27;100098.81;;;2.89
76901;BMP280;65859;43.020;25.096;2023-12-04T01:48:14;100110.09;;;2.89
76901;BMP280;65859;43.020;25.096;2023-12-04T01:51:02;100105.50;;;2.58
76901;BMP280;65859;43.020;25.096;2023-12-04T01:53:48;100102.75;;;2.69
76901;BMP280;65859;43.020;25.096;2023-12-04T01:56:35;100098.97;;;2.82
76901;BMP280;65859;43.020;25.096;2023-12-04T01:59:22;100107.88;;;3.03
76901;BMP280;65859;43.020;25.096;2023-12-04T02:02:07;100110.31;;;2.66
76901;BMP280;65859;43.020;25.096;2023-12-04T02:04:54;100099.47;;;3.01
76901;BMP280;65859;43.020;25.096;2023-12-04T02:07:41;100103.75;;;3.07
76901;BMP280;65859;43.020;25.096;2023-12-04T02:10:26;100110.38;;;3.15
76901;BMP280;65859;43.020;25.096;2023-12-04T02:13:11;100118.81;;;3.17
76901;BMP280;65859;43.020;25.096;2023-12-04T02:15:56;100118.88;;;3.27
76901;BMP280;65859;43.020;25.096;2023-12-04T02:18:43;100118.66;;;3.29
76901;BMP280;65859;43.020;25.096;2023-12-04T02:21:28;100118.25;;;3.42
76901;BMP280;65859;43.020;25.096;2023-12-04T02:24:12;100115.44;;;3.49
76901;BMP280;65859;43.020;25.096;2023-12-04T02:27:04;100115.84;;;3.35
76901;BMP280;65859;43.020;25.096;2023-12-04T02:29:56;100109.00;;;3.34
76901;BMP280;65859;43.020;25.096;2023-12-04T02:32:45;100113.19;;;3.57
76901;BMP280;65859;43.020;25.096;2023-12-04T02:35:32;100108.16;;;3.56
76901;BMP280;65859;43.020;25.096;2023-12-04T02:38:18;100108.16;;;3.56
76901;BMP280;65859;43.020;25.096;2023-12-04T02:41:03;100095.34;;;3.32
76901;BMP280;65859;43.020;25.096;2023-12-04T02:43:48;100113.53;;;3.39
76901;BMP280;65859;43.020;25.096;2023-12-04T02:46:33;100118.69;;;3.34
76901;BMP280;65859;43.020;25.096;2023-12-04T02:49:18;100120.97;;;3.52
76901;BMP280;65859;43.020;25.096;2023-12-04T02:52:03;100117.47;;;3.68
76901;BMP280;65859;43.020;25.096;2023-12-04T02:54:48;100118.00;;;3.70
76901;BMP280;65859;43.020;25.096;2023-12-04T02:57:33;100124.63;;;3.78
76901;BMP280;65859;43.020;25.096;2023-12-04T03:00:19;100123.81;;;3.73
76901;BMP280;65859;43.020;25.096;2023-12-04T03:03:04;100130.84;;;3.67
76901;BMP280;65859;43.020;25.096;2023-12-04T03:05:48;100133.59;;;3.50
76901;BMP280;65859;43.020;25.096;2023-12-04T03:08:33;100129.38;;;3.27
76901;BMP280;65859;43.020;25.096;2023-12-04T03:11:18;100130.47;;;3.31
76901;BMP280;65859;43.020;25.096;2023-12-04T03:14:03;100138.88;;;3.33
76901;BMP280;65859;43.020;25.096;2023-12-04T03:16:47;100140.13;;;3.26
76901;BMP280;65859;43.020;25.096;2023-12-04T03:19:32;100150.94;;;3.07
76901;BMP280;65859;43.020;25.096;2023-12-04T03:22:18;100163.91;;;3.19
76901;BMP280;65859;43.020;25.096;2023-12-04T03:25:02;100155.59;;;3.27
76901;BMP280;65859;43.020;25.096;2023-12-04T03:27:47;100152.63;;;3.18
76901;BMP280;65859;43.020;25.096;2023-12-04T03:30:33;100158.28;;;3.32
76901;BMP280;65859;43.020;25.096;2023-12-04T03:33:18;100152.19;;;3.05
76901;BMP280;65859;43.020;25.096;2023-12-04T03:36:03;100157.50;;;3.32
76901;BMP280;65859;43.020;25.096;2023-12-04T03:38:47;100149.66;;;3.10
76901;BMP280;65859;43.020;25.096;2023-12-04T03:41:33;100152.94;;;3.22
76901;BMP280;65859;43.020;25.096;2023-12-04T03:44:17;100156.69;;;3.31
76901;BMP280;65859;43.020;25.096;2023-12-04T03:47:02;100164.31;;;3.33
76901;BMP280;65859;43.020;25.096;2023-12-04T03:49:47;100164.28;;;3.06
76901;BMP280;65859;43.020;25.096;2023-12-04T03:52:31;100157.53;;;3.10
76901;BMP280;65859;43.020;25.096;2023-12-04T03:55:16;100150.75;;;3.14
76901;BMP280;65859;43.020;25.096;2023-12-04T03:58:03;100160.06;;;3.05
76901;BMP280;65859;43.020;25.096;2023-12-04T04:00:50;100161.09;;;3.04
76901;BMP280;65859;43.020;25.096;2023-12-04T04:03:34;100157.50;;;2.88
76901;BMP280;65859;43.020;25.096;2023-12-04T04:06:19;100156.31;;;2.95
76901;BMP280;65859;43.020;25.096;2023-12-04T04:09:04;100157.91;;;3.02
76901;BMP280;65859;43.020;25.096;2023-12-04T04:11:49;100161.72;;;3.11
76901;BMP280;65859;43.020;25.096;2023-12-04T04:14:33;100167.00;;;3.16
76901;BMP280;65859;43.020;25.096;2023-12-04T04:17:19;100171.03;;;3.02
76901;BMP280;65859;43.020;25.096;2023-12-04T04:20:05;100165.38;;;3.10
76901;BMP280;65859;43.020;25.096;2023-12-04T04:22:50;100160.47;;;2.96
76901;BMP280;65859;43.020;25.096;2023-12-04T04:25:35;100159.97;;;2.94
76901;BMP280;65859;43.020;25.096;2023-12-04T04:28:19;100152.13;;;3.00
76901;BMP280;65859;43.020;25.096;2023-12-04T04:31:06;100157.53;;;3.10
76901;BMP280;65859;43.020;25.096;2023-12-04T04:33:51;100137.44;;;2.99
76901;BMP280;65859;43.020;25.096;2023-12-04T04:36:35;100171.63;;;3.09
76901;BMP280;65859;43.020;25.096;2023-12-04T04:39:20;100171.09;;;3.07
76901;BMP280;65859;43.020;25.096;2023-12-04T04:42:06;100173.47;;;3.08
76901;BMP280;65859;43.020;25.096;2023-12-04T04:44:51;100165.25;;;3.22
76901;BMP280;65859;43.020;25.096;2023-12-04T04:47:35;100158.94;;;3.17
76901;BMP280;65859;43.020;25.096;2023-12-04T04:50:20;100176.66;;;2.88
76901;BMP280;65859;43.020;25.096;2023-12-04T04:53:05;100180.13;;;2.55
76901;BMP280;65859;43.020;25.096;2023-12-04T04:55:50;100186.28;;;2.49
76901;BMP280;65859;43.020;25.096;2023-12-04T04:58:35;100173.13;;;2.44
76901;BMP280;65859;43.020;25.096;2023-12-04T05:01:21;100176.59;;;2.50
76901;BMP280;65859;43.020;25.096;2023-12-04T05:04:06;100169.41;;;2.79
76901;BMP280;65859;43.020;25.096;2023-12-04T05:06:51;100174.78;;;3.06
76901;BMP280;65859;43.020;25.096;2023-12-04T05:09:35;100178.16;;;2.67
76901;BMP280;65859;43.020;25.096;2023-12-04T05:12:20;100178.31;;;2.94
76901;BMP280;65859;43.020;25.096;2023-12-04T05:15:05;100183.28;;;2.96
76901;BMP280;65859;43.020;25.096;2023-12-04T05:17:49;100192.41;;;2.55
76901;BMP280;65859;43.020;25.096;2023-12-04T05:20:36;100196.44;;;2.45
76901;BMP280;65859;43.020;25.096;2023-12-04T05:23:20;100195.34;;;2.41
76901;BMP280;65859;43.020;25.096;2023-12-04T05:26:06;100195.72;;;2.50
76901;BMP280;65859;43.020;25.096;2023-12-04T05:28:51;100191.38;;;2.56
76901;BMP280;65859;43.020;25.096;2023-12-04T05:31:37;100196.47;;;2.62
76901;BMP280;65859;43.020;25.096;2023-12-04T05:34:23;100205.72;;;2.70
76901;BMP280;65859;43.020;25.096;2023-12-04T05:37:07;100203.56;;;2.67
76901;BMP280;65859;43.020;25.096;2023-12-04T05:39:52;100199.13;;;2.67
76901;BMP280;65859;43.020;25.096;2023-12-04T05:42:38;100209.28;;;2.81
76901;BMP280;65859;43.020;25.096;2023-12-04T05:45:22;100213.25;;;2.83
76901;BMP280;65859;43.020;25.096;2023-12-04T05:48:07;100221.84;;;2.79
76901;BMP280;65859;43.020;25.096;2023-12-04T05:50:52;100211.25;;;2.90
76901;BMP280;65859;43.020;25.096;2023-12-04T05:53:36;100218.59;;;2.88
76901;BMP280;65859;43.020;25.096;2023-12-04T05:56:21;100221.97;;;2.72
76901;BMP280;65859;43.020;25.096;2023-12-04T05:59:06;100217.88;;;2.59
76901;BMP280;65859;43.020;25.096;2023-12-04T06:01:52;100227.16;;;2.84
76901;BMP280;65859;43.020;25.096;2023-12-04T06:04:37;100235.00;;;2.67
76901;BMP280;65859;43.020;25.096;2023-12-04T06:07:21;100237.22;;;2.75
76901;BMP280;65859;43.020;25.096;2023-12-04T06:10:06;100223.13;;;2.76
76901;BMP280;65859;43.020;25.096;2023-12-04T06:12:52;100239.47;;;2.66
76901;BMP280;65859;43.020;25.096;2023-12-04T06:15:37;100244.84;;;2.93
76901;BMP280;65859;43.020;25.096;2023-12-04T06:18:22;100240.41;;;2.77
76901;BMP280;65859;43.020;25.096;2023-12-04T06:21:07;100247.94;;;2.90
76901;BMP280;65859;43.020;25.096;2023-12-04T06:23:52;100254.31;;;2.94
76901;BMP280;65859;43.020;25.096;2023-12-04T06:26:41;100249.91;;;3.00
76901;BMP280;65859;43.020;25.096;2023-12-04T06:29:27;100261.28;;;3.06
76901;BMP280;65859;43.020;25.096;2023-12-04T06:32:14;100257.78;;;3.00
76901;BMP280;65859;43.020;25.096;2023-12-04T06:34:59;100260.88;;;3.14
76901;BMP280;65859;43.020;25.096;2023-12-04T06:37:45;100260.63;;;3.37
76901;BMP280;65859;43.020;25.096;2023-12-04T06:40:30;100273.34;;;3.45
76901;BMP280;65859;43.020;25.096;2023-12-04T06:43:17;100275.75;;;3.52
76901;BMP280;65859;43.020;25.096;2023-12-04T06:46:03;100274.81;;;3.58
76901;BMP280;65859;43.020;25.096;2023-12-04T06:48:48;100274.06;;;3.63
76901;BMP280;65859;43.020;25.096;2023-12-04T06:51:35;100276.06;;;3.78
76901;BMP280;65859;43.020;25.096;2023-12-04T06:54:20;100281.47;;;3.27
76901;BMP280;65859;43.020;25.096;2023-12-04T06:57:05;100283.34;;;3.49
76901;BMP280;65859;43.020;25.096;2023-12-04T06:59:49;100280.84;;;4.08
76901;BMP280;65859;43.020;25.096;2023-12-04T07:02:36;100282.63;;;4.29
76901;BMP280;65859;43.020;25.096;2023-12-04T07:05:21;100292.66;;;5.07
76901;BMP280;65859;43.020;25.096;2023-12-04T07:08:06;100289.44;;;5.42
76901;BMP280;65859;43.020;25.096;2023-12-04T07:10:51;100291.25;;;5.46
76901;BMP280;65859;43.020;25.096;2023-12-04T07:13:35;100299.22;;;5.57
76901;BMP280;65859;43.020;25.096;2023-12-04T07:16:21;100295.97;;;5.39
76901;BMP280;65859;43.020;25.096;2023-12-04T07:19:05;100306.16;;;5.93
76901;BMP280;65859;43.020;25.096;2023-12-04T07:21:50;100302.25;;;6.37
76901;BMP280;65859;43.020;25.096;2023-12-04T07:24:35;100287.72;;;6.54
76901;BMP280;65859;43.020;25.096;2023-12-04T07:27:20;100295.66;;;6.54
76901;BMP280;65859;43.020;25.096;2023-12-04T07:30:05;100307.22;;;6.03
76901;BMP280;65859;43.020;25.096;2023-12-04T07:32:51;100312.47;;;5.87
76901;BMP280;65859;43.020;25.096;2023-12-04T07:35:38;100320.16;;;6.35
76901;BMP280;65859;43.020;25.096;2023-12-04T07:38:23;100315.91;;;5.93
76901;BMP280;65859;43.020;25.096;2023-12-04T07:41:08;100318.28;;;7.07
76901;BMP280;65859;43.020;25.096;2023-12-04T07:43:52;100318.34;;;7.51
76901;BMP280;65859;43.020;25.096;2023-12-04T07:46:39;100323.50;;;7.81
76901;BMP280;65859;43.020;25.096;2023-12-04T07:49:24;100325.41;;;8.10
76901;BMP280;65859;43.020;25.096;2023-12-04T07:52:09;100326.03;;;8.31
76901;BMP280;65859;43.020;25.096;2023-12-04T07:54:55;100320.13;;;8.44
76901;BMP280;65859;43.020;25.096;2023-12-04T07:57:40;100332.16;;;9.08
76901;BMP280;65859;43.020;25.096;2023-12-04T08:00:24;100318.28;;;8.98
76901;BMP280;65859;43.020;25.096;2023-12-04T08:03:12;100321.34;;;8.23
76901;BMP280;65859;43.020;25.096;2023-12-04T08:05:56;100333.00;;;8.80
76901;BMP280;65859;43.020;25.096;2023-12-04T08:08:41;100329.53;;;9.51
76901;BMP280;65859;43.020;25.096;2023-12-04T08:11:26;100328.75;;;9.51
76901;BMP280;65859;43.020;25.096;2023-12-04T08:14:11;100334.50;;;9.77
76901;BMP280;65859;43.020;25.096;2023-12-04T08:16:56;100340.09;;;9.75
76901;BMP280;65859;43.020;25.096;2023-12-04T08:19:41;100342.50;;;9.90
76901;BMP280;65859;43.020;25.096;2023-12-04T08:22:26;100339.16;;;10.17
76901;BMP280;65859;43.020;25.096;2023-12-04T08:25:11;100342.34;;;10.01
76901;BMP280;65859;43.020;25.096;2023-12-04T08:27:57;100340.69;;;11.11
76901;BMP280;65859;43.020;25.096;2023-12-04T08:30:42;100355.25;;;9.69
76901;BMP280;65859;43.020;25.096;2023-12-04T08:33:29;100344.78;;;10.62
76901;BMP280;65859;43.020;25.096;2023-12-04T08:36:13;100343.09;;;11.21
76901;BMP280;65859;43.020;25.096;2023-12-04T08:38:58;100340.97;;;10.96
76901;BMP280;65859;43.020;25.096;2023-12-04T08:41:46;100346.75;;;11.25
76901;BMP280;65859;43.020;25.096;2023-12-04T08:44:31;100345.13;;;11.52
76901;BMP280;65859;43.020;25.096;2023-12-04T08:47:18;100347.69;;;11.43
76901;BMP280;65859;43.020;25.096;2023-12-04T08:50:03;100345.09;;;11.16
76901;BMP280;65859;43.020;25.096;2023-12-04T08:52:48;100347.13;;;10.91
76901;BMP280;65859;43.020;25.096;2023-12-04T08:55:32;100349.97;;;11.72
76901;BMP280;65859;43.020;25.096;2023-12-04T08:58:18;100347.91;;;11.69
76901;BMP280;65859;43.020;25.096;2023-12-04T09:01:03;100340.94;;;11.73
76901;BMP280;65859;43.020;25.096;2023-12-04T09:03:51;100340.25;;;11.18
76901;BMP280;65859;43.020;25.096;2023-12-04T09:06:36;100345.13;;;11.88
76901;BMP280;65859;43.020;25.096;2023-12-04T09:09:21;100340.88;;;11.51
76901;BMP280;65859;43.020;25.096;2023-12-04T09:12:07;100339.13;;;12.67
76901;BMP280;65859;43.020;25.096;2023-12-04T09:14:53;100337.53;;;12.66
76901;BMP280;65859;43.020;25.096;2023-12-04T09:17:38;100326.88;;;12.74
76901;BMP280;65859;43.020;25.096;2023-12-04T09:20:23;100326.69;;;13.63
76901;BMP280;65859;43.020;25.096;2023-12-04T09:23:08;100318.22;;;13.17
76901;BMP280;65859;43.020;25.096;2023-12-04T09:25:54;100329.91;;;12.42
76901;BMP280;65859;43.020;25.096;2023-12-04T09:28:38;100319.44;;;12.45
76901;BMP280;65859;43.020;25.096;2023-12-04T09:31:24;100333.44;;;13.69
76901;BMP280;65859;43.020;25.096;2023-12-04T09:34:10;100329.50;;;13.49
76901;BMP280;65859;43.020;25.096;2023-12-04T09:36:55;100332.75;;;14.06
76901;BMP280;65859;43.020;25.096;2023-12-04T09:39:40;100332.16;;;13.49
76901;BMP280;65859;43.020;25.096;2023-12-04T09:42:24;100321.31;;;12.93
76901;BMP280;65859;43.020;25.096;2023-12-04T09:45:10;100311.50;;;13.46
76901;BMP280;65859;43.020;25.096;2023-12-04T09:47:56;100322.59;;;13.74
76901;BMP280;65859;43.020;25.096;2023-12-04T09:50:42;100323.97;;;14.44
76901;BMP280;65859;43.020;25.096;2023-12-04T09:53:27;100325.69;;;14.49
76901;BMP280;65859;43.020;25.096;2023-12-04T09:56:16;100322.72;;;14.71
76901;BMP280;65859;43.020;25.096;2023-12-04T09:59:02;100322.78;;;15.34
76901;BMP280;65859;43.020;25.096;2023-12-04T10:01:50;100311.06;;;15.71
76901;BMP280;65859;43.020;25.096;2023-12-04T10:04:37;100319.81;;;15.93
76901;BMP280;65859;43.020;25.096;2023-12-04T10:07:22;100321.31;;;14.94
76901;BMP280;65859;43.020;25.096;2023-12-04T10:10:07;100310.53;;;15.90
76901;BMP280;65859;43.020;25.096;2023-12-04T10:12:52;100311.38;;;16.15
76901;BMP280;65859;43.020;25.096;2023-12-04T10:15:51;100300.66;;;15.45
76901;BMP280;65859;43.020;25.096;2023-12-04T10:18:36;100301.47;;;15.70
76901;BMP280;65859;43.020;25.096;2023-12-04T10:21:21;100308.94;;;16.46
76901;BMP280;65859;43.020;25.096;2023-12-04T10:24:05;100305.44;;;16.09
76901;BMP280;65859;43.020;25.096;2023-12-04T10:26:50;100302.56;;;18.10
76901;BMP280;65859;43.020;25.096;2023-12-04T10:29:49;100299.66;;;18.35
76901;BMP280;65859;43.020;25.096;2023-12-04T10:32:41;100300.97;;;20.69
76901;BMP280;65859;43.020;25.096;2023-12-04T10:35:29;100301.00;;;20.73
76901;BMP280;65859;43.020;25.096;2023-12-04T10:38:18;100291.59;;;20.97
76901;BMP280;65859;43.020;25.096;2023-12-04T10:41:12;100301.78;;;21.55
76901;BMP280;65859;43.020;25.096;2023-12-04T10:43:58;100300.25;;;22.16
76901;BMP280;65859;43.020;25.096;2023-12-04T10:46:43;100299.28;;;22.59
76901;BMP280;65859;43.020;25.096;2023-12-04T10:49:30;100291.25;;;23.41
76901;BMP280;65859;43.020;25.096;2023-12-04T10:52:17;100291.47;;;24.11
76901;BMP280;65859;43.020;25.096;2023-12-04T10:55:04;100293.19;;;23.69
76901;BMP280;65859;43.020;25.096;2023-12-04T10:57:52;100298.59;;;23.26
76901;BMP280;65859;43.020;25.096;2023-12-04T11:00:47;100300.16;;;23.38
76901;BMP280;65859;43.020;25.096;2023-12-04T11:03:42;100299.41;;;23.52
76901;BMP280;65859;43.020;25.096;2023-12-04T11:06:29;100302.84;;;23.84
76901;BMP280;65859;43.020;25.096;2023-12-04T11:09:17;100303.63;;;23.46
76901;BMP280;65859;43.020;25.096;2023-12-04T11:12:06;100301.81;;;22.20
76901;BMP280;65859;43.020;25.096;2023-12-04T11:14:58;100308.69;;;23.33
76901;BMP280;65859;43.020;25.096;2023-12-04T11:17:47;100294.94;;;24.22
76901;BMP280;65859;43.020;25.096;2023-12-04T11:20:41;100298.00;;;25.42
76901;BMP280;65859;43.020;25.096;2023-12-04T11:23:29;100295.22;;;25.49
76901;BMP280;65859;43.020;25.096;2023-12-04T11:26:15;100290.47;;;25.19
76901;BMP280;65859;43.020;25.096;2023-12-04T11:29:00;100297.59;;;25.43
76901;BMP280;65859;43.020;25.096;2023-12-04T11:31:46;100294.13;;;25.43
76901;BMP280;65859;43.020;25.096;2023-12-04T11:34:32;100291.03;;;26.09
76901;BMP280;65859;43.020;25.096;2023-12-04T11:37:20;100287.97;;;24.28
76901;BMP280;65859;43.020;25.096;2023-12-04T11:40:07;100292.84;;;23.14
76901;BMP280;65859;43.020;25.096;2023-12-04T11:42:53;100290.47;;;23.69
76901;BMP280;65859;43.020;25.096;2023-12-04T11:45:40;100285.03;;;23.80
76901;BMP280;65859;43.020;25.096;2023-12-04T11:48:25;100290.28;;;24.22
76901;BMP280;65859;43.020;25.096;2023-12-04T11:51:10;100282.97;;;21.21
76901;BMP280;65859;43.020;25.096;2023-12-04T11:53:59;100286.22;;;21.89
76901;BMP280;65859;43.020;25.096;2023-12-04T14:40:29;100167.78;;;7.22
76901;BMP280;65859;43.020;25.096;2023-12-04T14:43:15;100166.97;;;7.21
76901;BMP280;65859;43.020;25.096;2023-12-04T14:45:59;100176.91;;;7.35
76901;BMP280;65859;43.020;25.096;2023-12-04T14:48:44;100178.13;;;7.52
76901;BMP280;65859;43.020;25.096;2023-12-04T14:51:29;100186.03;;;7.52
76901;BMP280;65859;43.020;25.096;2023-12-04T14:54:13;100184.78;;;7.45
76901;BMP280;65859;43.020;25.096;2023-12-04T14:57:21;100180.84;;;7.37
76901;BMP280;65859;43.020;25.096;2023-12-04T15:00:26;100193.09;;;7.23
76901;BMP280;65859;43.020;25.096;2023-12-04T15:03:17;100192.03;;;7.24
76901;BMP280;65859;43.020;25.096;2023-12-04T15:06:40;100193.81;;;6.79
76901;BMP280;65859;43.020;25.096;2023-12-04T15:09:45;100199.63;;;6.66
76901;BMP280;65859;43.020;25.096;2023-12-04T15:12:50;100207.38;;;6.37
76901;BMP280;65859;43.020;25.096;2023-12-04T15:15:53;100205.53;;;6.12
76901;BMP280;65859;43.020;25.096;2023-12-04T15:19:07;100200.00;;;5.83
76901;BMP280;65859;43.020;25.096;2023-12-04T15:21:55;100204.19;;;5.79
76901;BMP280;65859;43.020;25.096;2023-12-04T15:24:40;100206.81;;;5.63
76901;BMP280;65859;43.020;25.096;2023-12-04T15:27:25;100211.59;;;5.77
76901;BMP280;65859;43.020;25.096;2023-12-04T15:30:10;100210.78;;;5.61
76901;BMP280;65859;43.020;25.096;2023-12-04T15:32:57;100210.38;;;5.21
76901;BMP280;65859;43.020;25.096;2023-12-04T15:35:43;100209.59;;;5.26
76901;BMP280;65859;43.020;25.096;2023-12-04T15:38:27;100213.75;;;5.07
76901;BMP280;65859;43.020;25.096;2023-12-04T15:41:14;100208.34;;;5.39
76901;BMP280;65859;43.020;25.096;2023-12-04T15:44:02;100210.19;;;5.38
76901;BMP280;65859;43.020;25.096;2023-12-04T15:46:47;100213.81;;;5.22
76901;BMP280;65859;43.020;25.096;2023-12-04T15:49:32;100222.19;;;5.14
76901;BMP280;65859;43.020;25.096;2023-12-04T15:52:17;100222.69;;;5.06
76901;BMP280;65859;43.020;25.096;2023-12-04T15:55:03;100222.25;;;5.29
76901;BMP280;65859;43.020;25.096;2023-12-04T15:57:49;100226.31;;;4.94
76901;BMP280;65859;43.020;25.096;2023-12-04T16:00:39;100229.38;;;4.76
76901;BMP280;65859;43.020;25.096;2023-12-04T16:03:24;100223.69;;;4.99
76901;BMP280;65859;43.020;25.096;2023-12-04T16:06:10;100224.13;;;4.76
76901;BMP280;65859;43.020;25.096;2023-12-04T16:08:55;100224.91;;;4.77
76901;BMP280;65859;43.020;25.096;2023-12-04T16:11:42;100227.63;;;4.92
76901;BMP280;65859;43.020;25.096;2023-12-04T16:14:28;100226.75;;;4.81
76901;BMP280;65859;43.020;25.096;2023-12-04T16:17:13;100220.50;;;4.87
76901;BMP280;65859;43.020;25.096;2023-12-04T16:19:58;100226.25;;;4.84
76901;BMP280;65859;43.020;25.096;2023-12-04T16:22:44;100223.19;;;5.03
76901;BMP280;65859;43.020;25.096;2023-12-04T16:25:29;100221.56;;;4.91
76901;BMP280;65859;43.020;25.096;2023-12-04T16:28:14;100228.66;;;4.91
76901;BMP280;65859;43.020;25.096;2023-12-04T16:31:00;100228.13;;;4.89
76901;BMP280;65859;43.020;25.096;2023-12-04T16:33:45;100223.66;;;4.89
76901;BMP280;65859;43.020;25.096;2023-12-04T16:36:30;100212.81;;;4.81
76901;BMP280;65859;43.020;25.096;2023-12-04T16:39:15;100218.28;;;4.69
76901;BMP280;65859;43.020;25.096;2023-12-04T16:42:00;100215.16;;;4.72
76901;BMP280;65859;43.020;25.096;2023-12-04T16:44:46;100216.44;;;4.69
76901;BMP280;65859;43.020;25.096;2023-12-04T16:47:31;100216.13;;;4.61
76901;BMP280;65859;43.020;25.096;2023-12-04T16:50:16;100217.59;;;4.46
76901;BMP280;65859;43.020;25.096;2023-12-04T16:53:02;100219.63;;;4.34
76901;BMP280;65859;43.020;25.096;2023-12-04T16:55:47;100218.03;;;4.33
76901;BMP280;65859;43.020;25.096;2023-12-04T16:58:31;100224.59;;;4.31
76901;BMP280;65859;43.020;25.096;2023-12-04T17:01:16;100216.63;;;4.20
76901;BMP280;65859;43.020;25.096;2023-12-04T17:04:01;100227.72;;;4.28
76901;BMP280;65859;43.020;25.096;2023-12-04T17:06:46;100223.19;;;4.18
76901;BMP280;65859;43.020;25.096;2023-12-04T17:09:31;100219.56;;;4.29
76901;BMP280;65859;43.020;25.096;2023-12-04T17:12:16;100216.56;;;4.47
76901;BMP280;65859;43.020;25.096;2023-12-04T17:15:03;100209.13;;;4.34
76901;BMP280;65859;43.020;25.096;2023-12-04T17:17:48;100217.13;;;4.17
76901;BMP280;65859;43.020;25.096;2023-12-04T17:20:33;100201.56;;;4.11
76901;BMP280;65859;43.020;25.096;2023-12-04T17:23:17;100202.06;;;4.08
76901;BMP280;65859;43.020;25.096;2023-12-04T17:26:02;100206.13;;;3.93
76901;BMP280;65859;43.020;25.096;2023-12-04T17:28:47;100207.97;;;3.66
76901;BMP280;65859;43.020;25.096;2023-12-04T17:31:33;100207.53;;;3.52
76901;BMP280;65859;43.020;25.096;2023-12-04T17:34:18;100202.88;;;3.32
76901;BMP280;65859;43.020;25.096;2023-12-04T17:37:04;100205.72;;;3.53
76901;BMP280;65859;43.020;25.096;2023-12-04T17:39:49;100208.41;;;3.58
76901;BMP280;65859;43.020;25.096;2023-12-04T17:42:35;100207.38;;;3.37
76901;BMP280;65859;43.020;25.096;2023-12-04T17:45:21;100203.25;;;3.68
76901;BMP280;65859;43.020;25.096;2023-12-04T17:48:06;100200.72;;;3.07
76901;BMP280;65859;43.020;25.096;2023-12-04T17:50:52;100209.81;;;3.00
76901;BMP280;65859;43.020;25.096;2023-12-04T17:53:37;100210.88;;;2.82
76901;BMP280;65859;43.020;25.096;2023-12-04T17:56:22;100211.13;;;2.80
76901;BMP280;65859;43.020;25.096;2023-12-04T17:59:08;100205.03;;;3.13
76901;BMP280;65859;43.020;25.096;2023-12-04T18:01:53;100201.03;;;3.11
76901;BMP280;65859;43.020;25.096;2023-12-04T18:04:38;100203.03;;;2.65
76901;BMP280;65859;43.020;25.096;2023-12-04T18:07:24;100208.09;;;2.71
76901;BMP280;65859;43.020;25.096;2023-12-04T18:10:09;100206.19;;;2.84
76901;BMP280;65859;43.020;25.096;2023-12-04T18:12:55;100206.25;;;2.89
76901;BMP280;65859;43.020;25.096;2023-12-04T18:15:41;100207.31;;;2.88
76901;BMP280;65859;43.020;25.096;2023-12-04T18:18:26;100210.81;;;2.77
76901;BMP280;65859;43.020;25.096;2023-12-04T18:21:11;100202.50;;;2.63
76901;BMP280;65859;43.020;25.096;2023-12-04T18:23:56;100200.91;;;2.45